JAL39 RJTT-VIDP
Flight info
| Callsign | JAL39 |
|---|---|
| Flight time | 8h 32m |
| Altitude | 38000 |
| Route | NINOX Y28 ISAKY Y592 ONIKU A593 LAMEN/K0926F380 A593 AKARA/K0922S1160 A593 PK R343 MADUK/K0904S1220 W51 LEGIV W164 ADGOL W50 XSH W80 IDGAG A581 QNX W136 XISLI A581 SGM A599 LINSO/N0490F400 A599 LSO A201 LKN R594 JAL JAL6G |
| Aircraft | B789/H-SDE1E2E3FGHIJ2J3J4J5M1RWXY/LB1D1 |
Departure
| Time | 2026-04-30 11:55 |
|---|---|
| Airport | Tokyo Haneda International Airport (RJTT) |
Arrival
| Time | 2026-04-30 20:27 |
|---|---|
| Airport | Indira Gandhi International Airport (VIDP) |
| Time | Latitude | Longitude | Altitude | Speed | Heading |
|---|---|---|---|---|---|
| 2026-04-30 11:17 | 35.54805 | 139.76593 | 34 ft | 0 kts | 150° |
| 2026-04-30 11:40 | 35.54813 | 139.76586 | 34 ft | 3 kts | 150° |
| 2026-04-30 11:40 | 35.54831 | 139.76574 | 34 ft | 3 kts | 150° |
| 2026-04-30 11:40 | 35.54846 | 139.76563 | 34 ft | 2 kts | 149° |
| 2026-04-30 11:41 | 35.54860 | 139.76551 | 34 ft | 3 kts | 129° |
| 2026-04-30 11:41 | 35.54867 | 139.76536 | 34 ft | 3 kts | 95° |
| 2026-04-30 11:41 | 35.54865 | 139.76517 | 34 ft | 3 kts | 68° |
| 2026-04-30 11:41 | 35.54856 | 139.76495 | 34 ft | 3 kts | 60° |
| 2026-04-30 11:42 | 35.54850 | 139.76483 | 34 ft | 1 kts | 60° |
| 2026-04-30 11:42 | 35.54849 | 139.76481 | 34 ft | 0 kts | 60° |
| 2026-04-30 11:42 | 35.54849 | 139.76482 | 34 ft | 0 kts | 60° |
| 2026-04-30 11:43 | 35.54850 | 139.76482 | 34 ft | 0 kts | 60° |
| 2026-04-30 11:43 | 35.54856 | 139.76495 | 34 ft | 5 kts | 60° |
| 2026-04-30 11:44 | 35.54888 | 139.76563 | 34 ft | 12 kts | 60° |
| 2026-04-30 11:44 | 35.54937 | 139.76666 | 34 ft | 15 kts | 60° |
| 2026-04-30 11:44 | 35.54993 | 139.76784 | 34 ft | 17 kts | 59° |
| 2026-04-30 11:44 | 35.55054 | 139.76912 | 34 ft | 19 kts | 60° |
| 2026-04-30 11:45 | 35.55114 | 139.77040 | 34 ft | 15 kts | 62° |
| 2026-04-30 11:45 | 35.55112 | 139.77151 | 34 ft | 11 kts | 132° |
| 2026-04-30 11:45 | 35.55031 | 139.77215 | 34 ft | 17 kts | 150° |
| 2026-04-30 11:45 | 35.54949 | 139.77270 | 34 ft | 22 kts | 151° |
| 2026-04-30 11:46 | 35.54764 | 139.77402 | 34 ft | 24 kts | 150° |
| 2026-04-30 11:46 | 35.54661 | 139.77474 | 34 ft | 27 kts | 150° |
| 2026-04-30 11:46 | 35.54491 | 139.77595 | 34 ft | 29 kts | 152° |
| 2026-04-30 11:46 | 35.54312 | 139.77721 | 34 ft | 31 kts | 150° |
| 2026-04-30 11:47 | 35.54133 | 139.77849 | 34 ft | 27 kts | 150° |
| 2026-04-30 11:47 | 35.54009 | 139.77937 | 34 ft | 17 kts | 149° |
| 2026-04-30 11:47 | 35.53943 | 139.78007 | 34 ft | 12 kts | 104° |
| 2026-04-30 11:47 | 35.53969 | 139.78104 | 34 ft | 14 kts | 59° |
| 2026-04-30 11:48 | 35.54021 | 139.78215 | 34 ft | 16 kts | 60° |
| 2026-04-30 11:48 | 35.54081 | 139.78344 | 34 ft | 19 kts | 60° |
| 2026-04-30 11:48 | 35.54118 | 139.78475 | 34 ft | 16 kts | 108° |
| 2026-04-30 11:48 | 35.54034 | 139.78564 | 34 ft | 18 kts | 152° |
| 2026-04-30 11:49 | 35.53905 | 139.78650 | 34 ft | 24 kts | 150° |
| 2026-04-30 11:49 | 35.53759 | 139.78757 | 34 ft | 26 kts | 144° |
| 2026-04-30 11:49 | 35.53611 | 139.78898 | 34 ft | 28 kts | 140° |
| 2026-04-30 11:49 | 35.53461 | 139.79056 | 34 ft | 26 kts | 139° |
| 2026-04-30 11:50 | 35.53365 | 139.79195 | 34 ft | 18 kts | 105° |
| 2026-04-30 11:50 | 35.53381 | 139.79303 | 34 ft | 12 kts | 63° |
| 2026-04-30 11:50 | 35.53430 | 139.79412 | 34 ft | 17 kts | 60° |
| 2026-04-30 11:50 | 35.53498 | 139.79553 | 34 ft | 20 kts | 59° |
| 2026-04-30 11:51 | 35.53570 | 139.79703 | 34 ft | 21 kts | 60° |
| 2026-04-30 11:51 | 35.53642 | 139.79858 | 34 ft | 22 kts | 60° |
| 2026-04-30 11:51 | 35.53690 | 139.79994 | 34 ft | 16 kts | 90° |
| 2026-04-30 11:51 | 35.53633 | 139.80097 | 34 ft | 15 kts | 158° |
| 2026-04-30 11:52 | 35.53519 | 139.80161 | 34 ft | 21 kts | 150° |
| 2026-04-30 11:52 | 35.53368 | 139.80267 | 34 ft | 28 kts | 150° |
| 2026-04-30 11:52 | 35.53196 | 139.80391 | 34 ft | 30 kts | 150° |
| 2026-04-30 11:52 | 35.53062 | 139.80486 | 34 ft | 22 kts | 150° |
| 2026-04-30 11:53 | 35.52921 | 139.80507 | 34 ft | 23 kts | 222° |
| 2026-04-30 11:53 | 35.52784 | 139.80354 | 34 ft | 30 kts | 223° |
| 2026-04-30 11:53 | 35.52645 | 139.80198 | 34 ft | 19 kts | 223° |
| 2026-04-30 11:53 | 35.52534 | 139.80183 | 34 ft | 19 kts | 131° |
| 2026-04-30 11:54 | 35.52449 | 139.80309 | 34 ft | 18 kts | 132° |
| 2026-04-30 11:54 | 35.52430 | 139.80417 | 34 ft | 8 kts | 45° |
| 2026-04-30 11:54 | 35.52487 | 139.80481 | 34 ft | 18 kts | 42° |
| 2026-04-30 11:54 | 35.52809 | 139.80837 | 34 ft | 107 kts | 42° |
| 2026-04-30 11:55 | 35.53546 | 139.81657 | 43 ft | 173 kts | 41° |
| 2026-04-30 11:55 | 35.54449 | 139.82686 | 791 ft | 179 kts | 42° |
| 2026-04-30 11:55 | 35.55369 | 139.83779 | 1806 ft | 187 kts | 43° |
| 2026-04-30 11:55 | 35.56235 | 139.84970 | 2607 ft | 193 kts | 56° |
| 2026-04-30 11:56 | 35.56516 | 139.86629 | 3076 ft | 208 kts | 93° |
| 2026-04-30 11:56 | 35.55997 | 139.88311 | 3596 ft | 219 kts | 114° |
| 2026-04-30 11:56 | 35.55410 | 139.90102 | 4144 ft | 233 kts | 110° |
| 2026-04-30 11:56 | 35.54898 | 139.92048 | 4716 ft | 244 kts | 108° |
| 2026-04-30 11:57 | 35.54317 | 139.94038 | 5386 ft | 252 kts | 120° |
| 2026-04-30 11:57 | 35.53073 | 139.95544 | 6152 ft | 254 kts | 150° |
| 2026-04-30 11:57 | 35.51363 | 139.96039 | 6982 ft | 258 kts | 180° |
| 2026-04-30 11:57 | 35.49617 | 139.95462 | 7848 ft | 260 kts | 200° |
| 2026-04-30 11:58 | 35.47910 | 139.94692 | 8634 ft | 265 kts | 198° |
| 2026-04-30 11:58 | 35.46161 | 139.93896 | 9322 ft | 273 kts | 207° |
| 2026-04-30 11:58 | 35.44782 | 139.92269 | 10016 ft | 280 kts | 237° |
| 2026-04-30 11:58 | 35.44202 | 139.90018 | 10731 ft | 288 kts | 262° |
| 2026-04-30 11:59 | 35.44135 | 139.87484 | 11293 ft | 300 kts | 266° |
| 2026-04-30 11:59 | 35.44016 | 139.84899 | 11703 ft | 315 kts | 264° |
| 2026-04-30 11:59 | 35.43787 | 139.82158 | 12081 ft | 330 kts | 262° |
| 2026-04-30 11:59 | 35.43478 | 139.79283 | 12414 ft | 346 kts | 261° |
| 2026-04-30 12:00 | 35.43119 | 139.76313 | 12806 ft | 359 kts | 260° |
| 2026-04-30 12:00 | 35.42837 | 139.73241 | 13342 ft | 368 kts | 268° |
| 2026-04-30 12:00 | 35.43241 | 139.70115 | 13975 ft | 374 kts | 284° |
| 2026-04-30 12:00 | 35.44024 | 139.67065 | 14754 ft | 376 kts | 287° |
| 2026-04-30 12:01 | 35.44852 | 139.64007 | 15476 ft | 377 kts | 287° |
| 2026-04-30 12:01 | 35.45669 | 139.60947 | 16195 ft | 379 kts | 286° |
| 2026-04-30 12:01 | 35.46478 | 139.57851 | 16920 ft | 380 kts | 286° |
| 2026-04-30 12:01 | 35.47274 | 139.54769 | 17619 ft | 381 kts | 286° |
| 2026-04-30 12:02 | 35.47933 | 139.51615 | 18283 ft | 381 kts | 279° |
| 2026-04-30 12:02 | 35.48270 | 139.48380 | 18934 ft | 383 kts | 276° |
| 2026-04-30 12:02 | 35.48519 | 139.45099 | 19537 ft | 386 kts | 274° |
| 2026-04-30 12:02 | 35.48717 | 139.41811 | 20145 ft | 388 kts | 274° |
| 2026-04-30 12:03 | 35.48889 | 139.38503 | 20762 ft | 390 kts | 273° |
| 2026-04-30 12:03 | 35.49192 | 139.31832 | 21981 ft | 393 kts | 272° |
| 2026-04-30 12:03 | 35.49332 | 139.28498 | 22547 ft | 395 kts | 272° |
| 2026-04-30 12:04 | 35.49472 | 139.25080 | 23100 ft | 398 kts | 272° |
| 2026-04-30 12:04 | 35.49610 | 139.21670 | 23635 ft | 400 kts | 272° |
| 2026-04-30 12:04 | 35.49666 | 139.18239 | 24141 ft | 403 kts | 269° |
| 2026-04-30 12:04 | 35.49595 | 139.14764 | 24662 ft | 405 kts | 267° |
| 2026-04-30 12:05 | 35.49487 | 139.11298 | 25182 ft | 408 kts | 266° |
| 2026-04-30 12:05 | 35.49355 | 139.07810 | 25688 ft | 410 kts | 266° |
| 2026-04-30 12:05 | 35.49205 | 139.04303 | 26193 ft | 412 kts | 265° |
| 2026-04-30 12:05 | 35.49045 | 139.00782 | 26673 ft | 414 kts | 265° |
| 2026-04-30 12:06 | 35.48880 | 138.97282 | 27138 ft | 417 kts | 264° |
| 2026-04-30 12:06 | 35.48711 | 138.93725 | 27605 ft | 419 kts | 264° |
| 2026-04-30 12:06 | 35.48538 | 138.90129 | 28092 ft | 421 kts | 264° |
| 2026-04-30 12:06 | 35.48354 | 138.86541 | 28545 ft | 424 kts | 263° |
| 2026-04-30 12:07 | 35.48163 | 138.82914 | 29010 ft | 427 kts | 263° |
| 2026-04-30 12:07 | 35.47988 | 138.79275 | 29508 ft | 428 kts | 263° |
| 2026-04-30 12:07 | 35.47807 | 138.75606 | 29990 ft | 430 kts | 263° |
| 2026-04-30 12:07 | 35.47616 | 138.71946 | 30441 ft | 431 kts | 262° |
| 2026-04-30 12:08 | 35.47419 | 138.68265 | 30909 ft | 433 kts | 262° |
| 2026-04-30 12:08 | 35.47227 | 138.64559 | 31311 ft | 436 kts | 262° |
| 2026-04-30 12:08 | 35.47031 | 138.60834 | 31749 ft | 438 kts | 262° |
| 2026-04-30 12:08 | 35.46840 | 138.57112 | 32362 ft | 435 kts | 262° |
| 2026-04-30 12:09 | 35.46649 | 138.53436 | 33043 ft | 430 kts | 262° |
| 2026-04-30 12:09 | 35.46459 | 138.49827 | 33714 ft | 426 kts | 262° |
| 2026-04-30 12:09 | 35.46270 | 138.46231 | 34398 ft | 421 kts | 262° |
| 2026-04-30 12:09 | 35.46077 | 138.42625 | 35029 ft | 417 kts | 261° |
| 2026-04-30 12:10 | 35.45884 | 138.39085 | 35586 ft | 414 kts | 261° |
| 2026-04-30 12:10 | 35.45694 | 138.35617 | 36110 ft | 411 kts | 261° |
| 2026-04-30 12:10 | 35.45503 | 138.32131 | 36610 ft | 408 kts | 261° |
| 2026-04-30 12:10 | 35.45311 | 138.28667 | 37075 ft | 405 kts | 261° |
| 2026-04-30 12:11 | 35.45120 | 138.25226 | 37532 ft | 402 kts | 261° |
| 2026-04-30 12:11 | 35.44928 | 138.21792 | 37881 ft | 401 kts | 260° |
| 2026-04-30 12:11 | 35.44739 | 138.18392 | 38067 ft | 398 kts | 260° |
| 2026-04-30 12:12 | 35.44354 | 138.11617 | 38139 ft | 398 kts | 261° |
| 2026-04-30 12:12 | 35.43972 | 138.04897 | 38147 ft | 397 kts | 261° |
| 2026-04-30 12:13 | 35.43584 | 137.98140 | 38137 ft | 397 kts | 261° |
| 2026-04-30 12:13 | 35.43193 | 137.91387 | 38128 ft | 397 kts | 261° |
| 2026-04-30 12:14 | 35.42798 | 137.84624 | 38108 ft | 397 kts | 261° |
| 2026-04-30 12:14 | 35.42373 | 137.77881 | 38086 ft | 397 kts | 260° |
| 2026-04-30 12:15 | 35.41882 | 137.71128 | 38071 ft | 398 kts | 260° |
| 2026-04-30 12:15 | 35.41376 | 137.64365 | 38083 ft | 398 kts | 260° |
| 2026-04-30 12:16 | 35.40694 | 137.57689 | 38071 ft | 396 kts | 255° |
| 2026-04-30 12:16 | 35.39487 | 137.51113 | 38070 ft | 395 kts | 253° |
| 2026-04-30 12:17 | 35.37458 | 137.41309 | 38072 ft | 396 kts | 252° |
| 2026-04-30 12:17 | 35.36054 | 137.34793 | 38061 ft | 395 kts | 252° |
| 2026-04-30 12:18 | 35.34644 | 137.28326 | 38067 ft | 395 kts | 252° |
| 2026-04-30 12:18 | 35.33207 | 137.21774 | 38066 ft | 395 kts | 252° |
| 2026-04-30 12:19 | 35.31782 | 137.15303 | 38055 ft | 396 kts | 252° |
| 2026-04-30 12:19 | 35.30340 | 137.08776 | 38063 ft | 396 kts | 252° |
| 2026-04-30 12:20 | 35.28917 | 137.02294 | 38058 ft | 396 kts | 252° |
| 2026-04-30 12:20 | 35.27492 | 136.95838 | 38051 ft | 396 kts | 252° |
| 2026-04-30 12:21 | 35.26043 | 136.89335 | 38062 ft | 395 kts | 252° |
| 2026-04-30 12:21 | 35.24589 | 136.82841 | 38053 ft | 395 kts | 251° |
| 2026-04-30 12:22 | 35.23132 | 136.76352 | 38046 ft | 396 kts | 251° |
| 2026-04-30 12:22 | 35.21670 | 136.69860 | 38036 ft | 395 kts | 251° |
| 2026-04-30 12:23 | 35.20454 | 136.64471 | 38047 ft | 395 kts | 251° |
| 2026-04-30 12:23 | 35.18739 | 136.56897 | 38040 ft | 396 kts | 251° |
| 2026-04-30 12:24 | 35.17278 | 136.50459 | 38035 ft | 395 kts | 251° |
| 2026-04-30 12:24 | 35.16052 | 136.45073 | 38045 ft | 395 kts | 251° |
| 2026-04-30 12:25 | 35.14577 | 136.38607 | 38031 ft | 394 kts | 251° |
| 2026-04-30 12:25 | 35.13100 | 136.32150 | 38025 ft | 394 kts | 251° |
| 2026-04-30 12:26 | 35.11621 | 136.25691 | 38030 ft | 396 kts | 251° |
| 2026-04-30 12:26 | 35.10144 | 136.19212 | 38017 ft | 396 kts | 251° |
| 2026-04-30 12:27 | 35.08665 | 136.12730 | 38012 ft | 396 kts | 251° |
| 2026-04-30 12:27 | 35.07185 | 136.06260 | 38014 ft | 396 kts | 251° |
| 2026-04-30 12:28 | 35.05696 | 135.99793 | 37999 ft | 396 kts | 251° |
| 2026-04-30 12:28 | 35.04207 | 135.93360 | 37995 ft | 393 kts | 251° |
| 2026-04-30 12:29 | 35.02710 | 135.86920 | 38000 ft | 394 kts | 251° |
| 2026-04-30 12:29 | 35.01317 | 135.80456 | 37985 ft | 395 kts | 253° |
| 2026-04-30 12:30 | 35.00104 | 135.73922 | 37978 ft | 395 kts | 253° |
| 2026-04-30 12:30 | 34.98896 | 135.67403 | 37987 ft | 396 kts | 253° |
| 2026-04-30 12:31 | 34.97675 | 135.60856 | 37972 ft | 395 kts | 253° |
| 2026-04-30 12:31 | 34.96451 | 135.54302 | 37966 ft | 396 kts | 253° |
| 2026-04-30 12:32 | 34.95226 | 135.47760 | 37968 ft | 396 kts | 253° |
| 2026-04-30 12:32 | 34.94000 | 135.41231 | 37965 ft | 396 kts | 253° |
| 2026-04-30 12:33 | 34.92756 | 135.34705 | 37954 ft | 395 kts | 252° |
| 2026-04-30 12:33 | 34.91483 | 135.28169 | 37963 ft | 395 kts | 252° |
| 2026-04-30 12:34 | 34.90207 | 135.21647 | 37959 ft | 396 kts | 252° |
| 2026-04-30 12:34 | 34.88928 | 135.15127 | 37956 ft | 395 kts | 252° |
| 2026-04-30 12:35 | 34.87654 | 135.08662 | 37940 ft | 395 kts | 252° |
| 2026-04-30 12:35 | 34.86368 | 135.02158 | 37947 ft | 395 kts | 252° |
| 2026-04-30 12:36 | 34.85125 | 134.95637 | 37951 ft | 395 kts | 252° |
| 2026-04-30 12:36 | 34.83899 | 134.89109 | 37941 ft | 394 kts | 252° |
| 2026-04-30 12:37 | 34.82674 | 134.82596 | 37956 ft | 395 kts | 252° |
| 2026-04-30 12:37 | 34.81452 | 134.76113 | 37949 ft | 395 kts | 252° |
| 2026-04-30 12:38 | 34.80222 | 134.69600 | 37936 ft | 394 kts | 252° |
| 2026-04-30 12:38 | 34.78981 | 134.63089 | 37948 ft | 394 kts | 252° |
| 2026-04-30 12:39 | 34.77734 | 134.56616 | 37948 ft | 394 kts | 252° |
| 2026-04-30 12:39 | 34.76477 | 134.50112 | 37958 ft | 394 kts | 252° |
| 2026-04-30 12:40 | 34.75224 | 134.43615 | 37950 ft | 395 kts | 252° |
| 2026-04-30 12:40 | 34.73988 | 134.37133 | 37952 ft | 395 kts | 252° |
| 2026-04-30 12:41 | 34.72746 | 134.30637 | 37962 ft | 395 kts | 252° |
| 2026-04-30 12:41 | 34.71493 | 134.24108 | 37949 ft | 395 kts | 252° |
| 2026-04-30 12:42 | 34.70245 | 134.17609 | 37961 ft | 395 kts | 252° |
| 2026-04-30 12:42 | 34.68999 | 134.11135 | 37956 ft | 395 kts | 252° |
| 2026-04-30 12:43 | 34.67715 | 134.04650 | 37949 ft | 393 kts | 250° |
| 2026-04-30 12:43 | 34.66007 | 133.98350 | 37964 ft | 392 kts | 247° |
| 2026-04-30 12:44 | 34.64180 | 133.92118 | 37955 ft | 391 kts | 246° |
| 2026-04-30 12:44 | 34.62312 | 133.85946 | 37962 ft | 391 kts | 246° |
| 2026-04-30 12:45 | 34.60415 | 133.79762 | 37963 ft | 391 kts | 246° |
| 2026-04-30 12:45 | 34.58505 | 133.73570 | 37954 ft | 392 kts | 246° |
| 2026-04-30 12:46 | 34.56588 | 133.67378 | 37957 ft | 391 kts | 246° |
| 2026-04-30 12:46 | 34.54648 | 133.61209 | 37946 ft | 391 kts | 245° |
| 2026-04-30 12:47 | 34.52646 | 133.55062 | 37944 ft | 391 kts | 245° |
| 2026-04-30 12:47 | 34.50638 | 133.48942 | 37944 ft | 390 kts | 245° |
| 2026-04-30 12:48 | 34.48624 | 133.42825 | 37930 ft | 390 kts | 245° |
| 2026-04-30 12:48 | 34.46660 | 133.36751 | 37932 ft | 389 kts | 245° |
| 2026-04-30 12:49 | 34.44730 | 133.30607 | 37921 ft | 389 kts | 245° |
| 2026-04-30 12:49 | 34.42801 | 133.24455 | 37916 ft | 389 kts | 245° |
| 2026-04-30 12:50 | 34.40878 | 133.18340 | 37915 ft | 389 kts | 245° |
| 2026-04-30 12:50 | 34.38947 | 133.12255 | 37903 ft | 388 kts | 245° |
| 2026-04-30 12:51 | 34.37007 | 133.06154 | 37909 ft | 388 kts | 245° |
| 2026-04-30 12:51 | 34.35066 | 133.00071 | 37909 ft | 387 kts | 245° |
| 2026-04-30 12:52 | 34.33120 | 132.93991 | 37899 ft | 387 kts | 245° |
| 2026-04-30 12:52 | 34.31174 | 132.87900 | 37913 ft | 387 kts | 245° |
| 2026-04-30 12:53 | 34.29257 | 132.81818 | 37899 ft | 386 kts | 245° |
| 2026-04-30 12:53 | 34.27350 | 132.75771 | 37897 ft | 386 kts | 245° |
| 2026-04-30 12:54 | 34.25432 | 132.69706 | 37901 ft | 387 kts | 245° |
| 2026-04-30 12:54 | 34.23506 | 132.63637 | 37886 ft | 386 kts | 245° |
| 2026-04-30 12:55 | 34.21577 | 132.57573 | 37887 ft | 386 kts | 245° |
| 2026-04-30 12:55 | 34.19651 | 132.51502 | 37891 ft | 386 kts | 245° |
| 2026-04-30 12:56 | 34.17742 | 132.45477 | 37879 ft | 386 kts | 245° |
| 2026-04-30 12:56 | 34.15817 | 132.39415 | 37892 ft | 386 kts | 245° |
| 2026-04-30 12:57 | 34.13887 | 132.33348 | 37882 ft | 386 kts | 245° |
| 2026-04-30 12:57 | 34.11959 | 132.27298 | 37891 ft | 386 kts | 245° |
| 2026-04-30 12:58 | 34.10034 | 132.21257 | 37892 ft | 385 kts | 245° |
| 2026-04-30 12:58 | 34.08113 | 132.15248 | 37885 ft | 385 kts | 245° |
| 2026-04-30 12:59 | 34.06595 | 132.09019 | 37896 ft | 389 kts | 250° |
| 2026-04-30 12:59 | 34.05237 | 132.02674 | 37883 ft | 389 kts | 250° |
| 2026-04-30 13:00 | 34.03860 | 131.96365 | 37888 ft | 389 kts | 250° |
| 2026-04-30 13:00 | 34.02465 | 131.90069 | 37889 ft | 389 kts | 250° |
| 2026-04-30 13:01 | 34.01057 | 131.83761 | 37878 ft | 389 kts | 250° |
| 2026-04-30 13:01 | 33.99646 | 131.77469 | 37890 ft | 389 kts | 250° |
| 2026-04-30 13:02 | 33.98232 | 131.71183 | 37877 ft | 389 kts | 250° |
| 2026-04-30 13:02 | 33.96805 | 131.64882 | 37881 ft | 389 kts | 249° |
| 2026-04-30 13:03 | 33.95620 | 131.59666 | 37887 ft | 389 kts | 249° |
| 2026-04-30 13:03 | 33.94191 | 131.53378 | 37873 ft | 389 kts | 249° |
| 2026-04-30 13:04 | 33.92767 | 131.47113 | 37879 ft | 389 kts | 249° |
| 2026-04-30 13:04 | 33.91337 | 131.40829 | 37881 ft | 389 kts | 249° |
| 2026-04-30 13:05 | 33.89896 | 131.34523 | 37870 ft | 389 kts | 249° |
| 2026-04-30 13:06 | 33.87732 | 131.25077 | 37882 ft | 390 kts | 249° |
| 2026-04-30 13:06 | 33.86292 | 131.18819 | 37871 ft | 389 kts | 249° |
| 2026-04-30 13:07 | 33.84843 | 131.12540 | 37878 ft | 389 kts | 249° |
| 2026-04-30 13:07 | 33.83394 | 131.06275 | 37881 ft | 389 kts | 248° |
| 2026-04-30 13:08 | 33.81946 | 131.00000 | 37871 ft | 388 kts | 248° |
| 2026-04-30 13:08 | 33.80495 | 130.93748 | 37882 ft | 388 kts | 248° |
| 2026-04-30 13:09 | 33.79043 | 130.87513 | 37873 ft | 387 kts | 248° |
| 2026-04-30 13:09 | 33.77593 | 130.81297 | 37876 ft | 387 kts | 248° |
| 2026-04-30 13:10 | 33.76134 | 130.75062 | 37875 ft | 387 kts | 248° |
| 2026-04-30 13:10 | 33.74676 | 130.68845 | 37861 ft | 386 kts | 248° |
| 2026-04-30 13:11 | 33.73215 | 130.62625 | 37866 ft | 387 kts | 248° |
| 2026-04-30 13:11 | 33.71752 | 130.56419 | 37857 ft | 386 kts | 247° |
| 2026-04-30 13:12 | 33.70295 | 130.50256 | 37848 ft | 385 kts | 247° |
| 2026-04-30 13:12 | 33.68818 | 130.44037 | 37856 ft | 384 kts | 246° |
| 2026-04-30 13:13 | 33.66421 | 130.38486 | 37863 ft | 375 kts | 235° |
| 2026-04-30 13:13 | 33.65023 | 130.35846 | 37854 ft | 375 kts | 234° |
| 2026-04-30 13:14 | 33.60563 | 130.28148 | 37847 ft | 374 kts | 232° |
| 2026-04-30 13:14 | 33.55931 | 130.20656 | 37853 ft | 374 kts | 231° |
| 2026-04-30 13:15 | 33.51208 | 130.13168 | 37853 ft | 373 kts | 231° |
| 2026-04-30 13:16 | 33.48074 | 130.08229 | 37859 ft | 374 kts | 231° |
| 2026-04-30 13:16 | 33.44916 | 130.03266 | 37847 ft | 374 kts | 231° |
| 2026-04-30 13:17 | 33.40202 | 129.95873 | 37859 ft | 373 kts | 231° |
| 2026-04-30 13:18 | 33.35464 | 129.88452 | 37855 ft | 374 kts | 231° |
| 2026-04-30 13:18 | 33.30708 | 129.81016 | 37861 ft | 375 kts | 231° |
| 2026-04-30 13:19 | 33.27554 | 129.76097 | 37852 ft | 375 kts | 231° |
| 2026-04-30 13:19 | 33.24369 | 129.71139 | 37867 ft | 376 kts | 231° |
| 2026-04-30 13:20 | 33.21184 | 129.66169 | 37858 ft | 376 kts | 232° |
| 2026-04-30 13:20 | 33.18914 | 129.60463 | 37871 ft | 384 kts | 243° |
| 2026-04-30 13:21 | 33.16978 | 129.54577 | 37853 ft | 383 kts | 243° |
| 2026-04-30 13:22 | 33.13986 | 129.45706 | 37870 ft | 384 kts | 243° |
| 2026-04-30 13:22 | 33.10954 | 129.36873 | 37858 ft | 383 kts | 243° |
| 2026-04-30 13:23 | 33.07906 | 129.28034 | 37874 ft | 384 kts | 243° |
| 2026-04-30 13:24 | 33.03831 | 129.16251 | 37872 ft | 384 kts | 243° |
| 2026-04-30 13:25 | 32.99750 | 129.04498 | 37865 ft | 384 kts | 243° |
| 2026-04-30 13:26 | 32.94621 | 128.89786 | 37868 ft | 384 kts | 243° |
| 2026-04-30 13:28 | 32.89493 | 128.75127 | 37872 ft | 384 kts | 243° |
| 2026-04-30 13:28 | 32.86402 | 128.66312 | 37884 ft | 385 kts | 243° |
| 2026-04-30 13:29 | 32.82285 | 128.54613 | 37875 ft | 383 kts | 242° |
| 2026-04-30 13:31 | 32.77120 | 128.39986 | 37874 ft | 382 kts | 242° |
| 2026-04-30 13:32 | 32.71946 | 128.25390 | 37975 ft | 383 kts | 242° |
| 2026-04-30 13:33 | 32.67822 | 128.13809 | 37990 ft | 381 kts | 242° |
| 2026-04-30 13:34 | 32.64716 | 128.05112 | 37994 ft | 381 kts | 242° |
| 2026-04-30 13:35 | 32.60566 | 127.93529 | 37998 ft | 382 kts | 242° |
| 2026-04-30 13:36 | 32.56421 | 127.81985 | 38011 ft | 381 kts | 242° |
| 2026-04-30 13:36 | 32.53294 | 127.73308 | 38015 ft | 381 kts | 242° |
| 2026-04-30 13:37 | 32.50153 | 127.64630 | 38022 ft | 382 kts | 242° |
| 2026-04-30 13:38 | 32.47010 | 127.55961 | 38033 ft | 381 kts | 242° |
| 2026-04-30 13:39 | 32.42819 | 127.44421 | 38033 ft | 382 kts | 242° |
| 2026-04-30 13:40 | 32.39650 | 127.35727 | 38050 ft | 384 kts | 242° |
| 2026-04-30 13:40 | 32.37537 | 127.29955 | 38041 ft | 384 kts | 243° |
| 2026-04-30 13:41 | 32.35406 | 127.24135 | 38051 ft | 383 kts | 243° |
| 2026-04-30 13:41 | 32.33289 | 127.18355 | 38059 ft | 385 kts | 243° |
| 2026-04-30 13:42 | 32.31505 | 127.13496 | 38052 ft | 385 kts | 243° |
| 2026-04-30 13:42 | 32.28321 | 127.04846 | 38065 ft | 384 kts | 243° |
| 2026-04-30 13:43 | 32.26741 | 126.98733 | 38071 ft | 392 kts | 250° |
| 2026-04-30 13:43 | 32.25430 | 126.92491 | 38056 ft | 391 kts | 250° |
| 2026-04-30 13:44 | 32.24092 | 126.86272 | 38070 ft | 391 kts | 250° |
| 2026-04-30 13:44 | 32.22735 | 126.80076 | 38071 ft | 390 kts | 250° |
| 2026-04-30 13:45 | 32.20676 | 126.70777 | 38071 ft | 390 kts | 250° |
| 2026-04-30 13:46 | 32.19316 | 126.64601 | 38080 ft | 389 kts | 250° |
| 2026-04-30 13:46 | 32.17977 | 126.58400 | 38067 ft | 390 kts | 251° |
| 2026-04-30 13:47 | 32.16636 | 126.52195 | 38082 ft | 390 kts | 251° |
| 2026-04-30 13:47 | 32.15299 | 126.46027 | 38102 ft | 389 kts | 250° |
| 2026-04-30 13:48 | 32.13955 | 126.39846 | 38116 ft | 388 kts | 251° |
| 2026-04-30 13:48 | 32.12611 | 126.33675 | 38108 ft | 387 kts | 251° |
| 2026-04-30 13:49 | 32.11269 | 126.27524 | 38119 ft | 386 kts | 251° |
| 2026-04-30 13:49 | 32.09922 | 126.21379 | 38117 ft | 386 kts | 251° |
| 2026-04-30 13:50 | 32.08582 | 126.15266 | 38110 ft | 385 kts | 251° |
| 2026-04-30 13:50 | 32.06563 | 126.06084 | 38122 ft | 385 kts | 251° |
| 2026-04-30 13:51 | 32.05242 | 125.99945 | 38111 ft | 385 kts | 251° |
| 2026-04-30 13:51 | 32.03936 | 125.93861 | 38124 ft | 385 kts | 251° |
| 2026-04-30 13:52 | 32.02621 | 125.87749 | 38115 ft | 385 kts | 251° |
| 2026-04-30 13:52 | 32.01317 | 125.81710 | 38119 ft | 386 kts | 251° |
| 2026-04-30 13:53 | 31.99977 | 125.75568 | 38127 ft | 386 kts | 251° |
| 2026-04-30 13:53 | 31.98622 | 125.69449 | 38115 ft | 386 kts | 251° |
| 2026-04-30 13:54 | 31.97263 | 125.63335 | 38128 ft | 385 kts | 251° |
| 2026-04-30 13:54 | 31.95899 | 125.57215 | 38126 ft | 387 kts | 251° |
| 2026-04-30 13:55 | 31.94541 | 125.51124 | 38119 ft | 386 kts | 251° |
| 2026-04-30 13:55 | 31.93168 | 125.44997 | 38133 ft | 387 kts | 251° |
| 2026-04-30 13:56 | 31.91789 | 125.38850 | 38124 ft | 388 kts | 251° |
| 2026-04-30 13:56 | 31.90409 | 125.32702 | 38130 ft | 389 kts | 251° |
| 2026-04-30 13:57 | 31.89023 | 125.26553 | 38150 ft | 388 kts | 251° |
| 2026-04-30 13:57 | 31.87631 | 125.20399 | 38164 ft | 390 kts | 251° |
| 2026-04-30 13:58 | 31.85532 | 125.11142 | 38154 ft | 390 kts | 251° |
| 2026-04-30 13:59 | 31.84136 | 125.05008 | 38168 ft | 391 kts | 252° |
| 2026-04-30 13:59 | 31.82747 | 124.98810 | 38163 ft | 392 kts | 252° |
| 2026-04-30 14:00 | 31.81400 | 124.92597 | 38162 ft | 392 kts | 252° |
| 2026-04-30 14:00 | 31.79372 | 124.83236 | 38171 ft | 394 kts | 253° |
| 2026-04-30 14:01 | 31.78018 | 124.77002 | 38166 ft | 394 kts | 253° |
| 2026-04-30 14:01 | 31.76653 | 124.70741 | 38179 ft | 395 kts | 253° |
| 2026-04-30 14:02 | 31.75277 | 124.64445 | 38170 ft | 396 kts | 253° |
| 2026-04-30 14:02 | 31.73914 | 124.58219 | 38179 ft | 397 kts | 253° |
| 2026-04-30 14:03 | 31.72533 | 124.51927 | 38190 ft | 397 kts | 253° |
| 2026-04-30 14:03 | 31.71145 | 124.45623 | 38180 ft | 398 kts | 253° |
| 2026-04-30 14:04 | 31.69763 | 124.39358 | 38192 ft | 398 kts | 253° |
| 2026-04-30 14:04 | 31.68364 | 124.33034 | 38195 ft | 399 kts | 253° |
| 2026-04-30 14:05 | 31.66967 | 124.26739 | 38185 ft | 399 kts | 253° |
| 2026-04-30 14:05 | 31.65574 | 124.20469 | 38199 ft | 399 kts | 253° |
| 2026-04-30 14:06 | 31.63461 | 124.10998 | 38192 ft | 400 kts | 253° |
| 2026-04-30 14:07 | 31.61341 | 124.01524 | 38208 ft | 400 kts | 253° |
| 2026-04-30 14:08 | 31.59256 | 123.92011 | 38197 ft | 401 kts | 254° |
| 2026-04-30 14:08 | 31.57184 | 123.82549 | 38213 ft | 401 kts | 254° |
| 2026-04-30 14:09 | 31.55792 | 123.76207 | 38202 ft | 401 kts | 254° |
| 2026-04-30 14:10 | 31.53710 | 123.66759 | 38218 ft | 402 kts | 254° |
| 2026-04-30 14:10 | 31.52307 | 123.60410 | 38210 ft | 401 kts | 254° |
| 2026-04-30 14:11 | 31.50903 | 123.54075 | 38214 ft | 401 kts | 254° |
| 2026-04-30 14:11 | 31.49578 | 123.47716 | 38223 ft | 402 kts | 256° |
| 2026-04-30 14:12 | 31.48362 | 123.41324 | 38211 ft | 401 kts | 256° |
| 2026-04-30 14:12 | 31.47158 | 123.34973 | 38225 ft | 401 kts | 256° |
| 2026-04-30 14:13 | 31.45939 | 123.28594 | 38221 ft | 402 kts | 256° |
| 2026-04-30 14:13 | 31.44714 | 123.22195 | 38219 ft | 402 kts | 256° |
| 2026-04-30 14:14 | 31.43489 | 123.15807 | 38231 ft | 403 kts | 256° |
| 2026-04-30 14:14 | 31.42255 | 123.09381 | 38222 ft | 403 kts | 256° |
| 2026-04-30 14:15 | 31.41021 | 123.02973 | 38228 ft | 404 kts | 256° |
| 2026-04-30 14:15 | 31.39788 | 122.96585 | 38233 ft | 405 kts | 256° |
| 2026-04-30 14:16 | 31.38541 | 122.90145 | 38223 ft | 405 kts | 257° |
| 2026-04-30 14:16 | 31.37290 | 122.83700 | 38236 ft | 406 kts | 257° |
| 2026-04-30 14:17 | 31.36040 | 122.77253 | 38232 ft | 407 kts | 257° |
| 2026-04-30 14:17 | 31.34804 | 122.70778 | 38229 ft | 407 kts | 257° |
| 2026-04-30 14:18 | 31.33570 | 122.64310 | 38242 ft | 408 kts | 257° |
| 2026-04-30 14:18 | 31.31706 | 122.54571 | 38231 ft | 409 kts | 257° |
| 2026-04-30 14:19 | 31.29841 | 122.44862 | 38243 ft | 409 kts | 257° |
| 2026-04-30 14:20 | 31.28611 | 122.38346 | 38232 ft | 410 kts | 257° |
| 2026-04-30 14:20 | 31.26764 | 122.28555 | 38246 ft | 410 kts | 258° |
| 2026-04-30 14:21 | 31.25538 | 122.22077 | 38234 ft | 410 kts | 258° |
| 2026-04-30 14:22 | 31.23683 | 122.12309 | 38248 ft | 410 kts | 258° |
| 2026-04-30 14:22 | 31.22032 | 122.03651 | 38234 ft | 410 kts | 258° |
| 2026-04-30 14:23 | 31.19523 | 121.90576 | 38244 ft | 414 kts | 259° |
| 2026-04-30 14:24 | 31.18002 | 121.80707 | 38208 ft | 411 kts | 271° |
| 2026-04-30 14:25 | 31.20200 | 121.67607 | 38232 ft | 410 kts | 281° |
| 2026-04-30 14:26 | 31.22395 | 121.57908 | 38236 ft | 411 kts | 282° |
| 2026-04-30 14:27 | 31.24687 | 121.48266 | 38215 ft | 410 kts | 282° |
| 2026-04-30 14:27 | 31.26225 | 121.41838 | 38218 ft | 410 kts | 282° |
| 2026-04-30 14:28 | 31.28613 | 121.32207 | 38210 ft | 412 kts | 285° |
| 2026-04-30 14:28 | 31.30530 | 121.25943 | 38212 ft | 412 kts | 287° |
| 2026-04-30 14:29 | 31.34452 | 121.13329 | 38206 ft | 411 kts | 287° |
| 2026-04-30 14:31 | 31.39250 | 120.97584 | 38208 ft | 411 kts | 287° |
| 2026-04-30 14:31 | 31.42125 | 120.88092 | 38223 ft | 412 kts | 287° |
| 2026-04-30 14:32 | 31.44990 | 120.78604 | 38210 ft | 412 kts | 287° |
| 2026-04-30 14:33 | 31.46902 | 120.72255 | 38222 ft | 413 kts | 287° |
| 2026-04-30 14:33 | 31.49762 | 120.62732 | 38227 ft | 414 kts | 287° |
| 2026-04-30 14:34 | 31.51673 | 120.56356 | 38248 ft | 417 kts | 288° |
| 2026-04-30 14:34 | 31.52640 | 120.53119 | 38427 ft | 421 kts | 288° |
| 2026-04-30 14:34 | 31.53607 | 120.49886 | 38695 ft | 422 kts | 288° |
| 2026-04-30 14:35 | 31.55550 | 120.43378 | 39349 ft | 422 kts | 288° |
| 2026-04-30 14:35 | 31.56516 | 120.40134 | 39654 ft | 422 kts | 288° |
| 2026-04-30 14:35 | 31.57470 | 120.36866 | 39919 ft | 422 kts | 285° |
| 2026-04-30 14:36 | 31.58064 | 120.33505 | 40132 ft | 422 kts | 279° |
| 2026-04-30 14:36 | 31.58820 | 120.26674 | 40207 ft | 421 kts | 277° |
| 2026-04-30 14:37 | 31.59375 | 120.19842 | 40216 ft | 421 kts | 275° |
| 2026-04-30 14:37 | 31.59799 | 120.12973 | 40218 ft | 422 kts | 275° |
| 2026-04-30 14:38 | 31.60164 | 120.06143 | 40202 ft | 422 kts | 275° |
| 2026-04-30 14:38 | 31.60509 | 119.99274 | 40213 ft | 422 kts | 275° |
| 2026-04-30 14:39 | 31.60846 | 119.92405 | 40224 ft | 422 kts | 275° |
| 2026-04-30 14:39 | 31.61178 | 119.85524 | 40214 ft | 422 kts | 275° |
| 2026-04-30 14:40 | 31.61665 | 119.75224 | 40221 ft | 421 kts | 275° |
| 2026-04-30 14:40 | 31.61984 | 119.68348 | 40217 ft | 420 kts | 275° |
| 2026-04-30 14:41 | 31.62312 | 119.61554 | 40209 ft | 419 kts | 275° |
| 2026-04-30 14:41 | 31.62642 | 119.54717 | 40220 ft | 418 kts | 275° |
| 2026-04-30 14:42 | 31.62968 | 119.47902 | 40208 ft | 417 kts | 275° |
| 2026-04-30 14:42 | 31.63289 | 119.41125 | 40214 ft | 416 kts | 275° |
| 2026-04-30 14:43 | 31.63604 | 119.34317 | 40218 ft | 416 kts | 275° |
| 2026-04-30 14:43 | 31.63913 | 119.27537 | 40206 ft | 414 kts | 275° |
| 2026-04-30 14:44 | 31.64215 | 119.20832 | 40218 ft | 414 kts | 275° |
| 2026-04-30 14:44 | 31.64524 | 119.14073 | 40214 ft | 413 kts | 275° |
| 2026-04-30 14:45 | 31.64862 | 119.07357 | 40208 ft | 412 kts | 276° |
| 2026-04-30 14:45 | 31.65291 | 119.00640 | 40217 ft | 411 kts | 277° |
| 2026-04-30 14:46 | 31.65791 | 118.93979 | 40206 ft | 411 kts | 277° |
| 2026-04-30 14:46 | 31.66208 | 118.88418 | 40214 ft | 411 kts | 277° |
| 2026-04-30 14:47 | 31.66791 | 118.80594 | 40214 ft | 412 kts | 277° |
| 2026-04-30 14:47 | 31.67284 | 118.73924 | 40207 ft | 411 kts | 277° |
| 2026-04-30 14:48 | 31.67775 | 118.67242 | 40219 ft | 411 kts | 277° |
| 2026-04-30 14:48 | 31.68263 | 118.60553 | 40209 ft | 411 kts | 277° |
| 2026-04-30 14:49 | 31.68747 | 118.53876 | 40212 ft | 411 kts | 278° |
| 2026-04-30 14:49 | 31.69231 | 118.47169 | 40220 ft | 412 kts | 278° |
| 2026-04-30 14:50 | 31.69948 | 118.37099 | 40210 ft | 412 kts | 278° |
| 2026-04-30 14:51 | 31.70654 | 118.27073 | 40214 ft | 413 kts | 278° |
| 2026-04-30 14:52 | 31.71357 | 118.16975 | 40215 ft | 413 kts | 278° |
| 2026-04-30 14:52 | 31.70986 | 118.10183 | 40232 ft | 421 kts | 266° |
| 2026-04-30 14:52 | 31.70516 | 118.06777 | 40218 ft | 422 kts | 266° |
| 2026-04-30 14:53 | 31.68805 | 117.96608 | 40211 ft | 423 kts | 263° |
| 2026-04-30 14:54 | 31.66137 | 117.83168 | 40206 ft | 423 kts | 263° |
| 2026-04-30 14:55 | 31.64065 | 117.73079 | 40220 ft | 423 kts | 263° |
| 2026-04-30 14:56 | 31.61289 | 117.59698 | 40214 ft | 421 kts | 263° |
| 2026-04-30 14:57 | 31.59454 | 117.49711 | 40207 ft | 418 kts | 264° |
| 2026-04-30 14:58 | 31.57268 | 117.37452 | 40216 ft | 416 kts | 264° |
| 2026-04-30 14:58 | 31.55490 | 117.27498 | 40210 ft | 415 kts | 264° |
| 2026-04-30 15:00 | 31.52567 | 117.10984 | 40209 ft | 413 kts | 265° |
| 2026-04-30 15:01 | 31.50219 | 116.97788 | 40206 ft | 413 kts | 264° |
| 2026-04-30 15:01 | 31.48412 | 116.87943 | 40204 ft | 416 kts | 261° |
| 2026-04-30 15:02 | 31.47258 | 116.84786 | 40199 ft | 428 kts | 249° |
| 2026-04-30 15:02 | 31.45641 | 116.81814 | 40237 ft | 434 kts | 245° |
| 2026-04-30 15:03 | 31.36613 | 116.67568 | 40212 ft | 437 kts | 243° |
| 2026-04-30 15:04 | 31.27395 | 116.53451 | 40209 ft | 437 kts | 242° |
| 2026-04-30 15:06 | 31.18136 | 116.39341 | 40204 ft | 437 kts | 242° |
| 2026-04-30 15:07 | 31.10740 | 116.28106 | 40198 ft | 435 kts | 242° |
| 2026-04-30 15:08 | 31.03369 | 116.16941 | 40203 ft | 436 kts | 242° |
| 2026-04-30 15:09 | 30.94110 | 116.02962 | 40200 ft | 434 kts | 242° |
| 2026-04-30 15:10 | 30.86703 | 115.91814 | 40203 ft | 435 kts | 242° |
| 2026-04-30 15:11 | 30.75652 | 115.75076 | 40185 ft | 438 kts | 241° |
| 2026-04-30 15:12 | 30.70014 | 115.66535 | 40203 ft | 450 kts | 240° |
| 2026-04-30 15:13 | 30.66190 | 115.60771 | 40185 ft | 449 kts | 240° |
| 2026-04-30 15:14 | 30.52844 | 115.40680 | 40191 ft | 449 kts | 240° |
| 2026-04-30 15:16 | 30.44440 | 115.25798 | 40172 ft | 426 kts | 263° |
| 2026-04-30 15:17 | 30.45180 | 115.12464 | 40196 ft | 414 kts | 280° |
| 2026-04-30 15:19 | 30.47948 | 114.85954 | 40183 ft | 415 kts | 279° |
| 2026-04-30 17:39 | 23.01970 | 97.45402 | 39833 ft | 457 kts | 274° |
| 2026-04-30 17:42 | 23.06054 | 97.11264 | 39821 ft | 456 kts | 273° |
| 2026-04-30 17:43 | 23.08081 | 96.94131 | 39814 ft | 456 kts | 273° |
| 2026-04-30 17:44 | 23.10477 | 96.73654 | 39813 ft | 456 kts | 273° |
| 2026-04-30 17:47 | 23.14029 | 96.42872 | 39799 ft | 455 kts | 272° |
| 2026-04-30 17:48 | 23.16752 | 96.18883 | 39807 ft | 456 kts | 272° |
| 2026-04-30 17:50 | 23.19691 | 95.92624 | 39799 ft | 456 kts | 272° |
| 2026-04-30 17:52 | 23.21958 | 95.72117 | 39808 ft | 456 kts | 272° |
| 2026-04-30 17:54 | 23.25310 | 95.41279 | 39804 ft | 457 kts | 272° |
| 2026-04-30 17:56 | 23.28246 | 95.13817 | 39822 ft | 457 kts | 272° |
| 2026-04-30 17:58 | 23.30416 | 94.93172 | 39818 ft | 458 kts | 272° |
| 2026-04-30 18:00 | 23.33283 | 94.65566 | 39823 ft | 459 kts | 272° |
| 2026-04-30 18:01 | 23.35040 | 94.48355 | 39826 ft | 458 kts | 272° |
| 2026-04-30 18:02 | 23.37135 | 94.27632 | 39836 ft | 459 kts | 272° |
| 2026-04-30 18:04 | 23.39201 | 94.06895 | 39847 ft | 459 kts | 272° |
| 2026-04-30 18:06 | 23.41919 | 93.79191 | 39841 ft | 461 kts | 272° |
| 2026-04-30 18:08 | 23.44260 | 93.54925 | 39854 ft | 461 kts | 272° |
| 2026-04-30 18:10 | 23.48686 | 93.27299 | 39864 ft | 463 kts | 278° |
| 2026-04-30 18:11 | 23.53213 | 93.03210 | 39853 ft | 467 kts | 280° |
| 2026-04-30 18:13 | 23.56464 | 92.85808 | 39860 ft | 468 kts | 280° |
| 2026-04-30 18:14 | 23.59679 | 92.68466 | 39861 ft | 467 kts | 280° |
| 2026-04-30 18:15 | 23.63874 | 92.47645 | 39865 ft | 468 kts | 282° |
| 2026-04-30 18:16 | 23.66746 | 92.33799 | 39865 ft | 469 kts | 282° |
| 2026-04-30 18:17 | 23.68179 | 92.26853 | 39874 ft | 470 kts | 282° |
| 2026-04-30 18:18 | 23.70334 | 92.16400 | 39865 ft | 470 kts | 282° |
| 2026-04-30 18:18 | 23.71763 | 92.09432 | 39875 ft | 469 kts | 282° |
| 2026-04-30 18:19 | 23.73183 | 92.02486 | 39876 ft | 469 kts | 282° |
| 2026-04-30 18:19 | 23.74602 | 91.95536 | 39867 ft | 469 kts | 282° |
| 2026-04-30 18:20 | 23.76021 | 91.88574 | 39880 ft | 469 kts | 282° |
| 2026-04-30 18:20 | 23.77436 | 91.81611 | 39872 ft | 469 kts | 282° |
| 2026-04-30 18:21 | 23.78838 | 91.74698 | 39874 ft | 469 kts | 281° |
| 2026-04-30 18:21 | 23.80250 | 91.67732 | 39882 ft | 470 kts | 282° |
| 2026-04-30 18:22 | 23.81658 | 91.60770 | 39870 ft | 469 kts | 282° |
| 2026-04-30 18:22 | 23.83758 | 91.50319 | 39883 ft | 469 kts | 281° |
| 2026-04-30 18:23 | 23.85148 | 91.43394 | 39871 ft | 468 kts | 281° |
| 2026-04-30 18:23 | 23.86548 | 91.36409 | 39877 ft | 468 kts | 281° |
| 2026-04-30 18:24 | 23.88618 | 91.26016 | 39873 ft | 467 kts | 281° |
| 2026-04-30 18:25 | 23.90080 | 91.19103 | 39873 ft | 466 kts | 282° |
| 2026-04-30 18:25 | 23.92353 | 91.08742 | 39875 ft | 467 kts | 282° |
| 2026-04-30 18:26 | 23.94598 | 90.98446 | 39875 ft | 465 kts | 282° |
| 2026-04-30 18:27 | 23.96601 | 90.89233 | 39866 ft | 464 kts | 282° |
| 2026-04-30 18:28 | 23.98827 | 90.78952 | 39863 ft | 463 kts | 282° |
| 2026-04-30 18:28 | 24.01034 | 90.68724 | 39850 ft | 461 kts | 282° |
| 2026-04-30 18:29 | 24.03968 | 90.55065 | 39851 ft | 460 kts | 282° |
| 2026-04-30 18:30 | 24.06876 | 90.41467 | 39857 ft | 460 kts | 282° |
| 2026-04-30 18:31 | 24.09047 | 90.31229 | 39841 ft | 459 kts | 282° |
| 2026-04-30 18:32 | 24.11201 | 90.21024 | 39854 ft | 459 kts | 282° |
| 2026-04-30 18:33 | 24.13359 | 90.10748 | 39834 ft | 458 kts | 282° |
| 2026-04-30 18:33 | 24.15497 | 90.00525 | 39851 ft | 460 kts | 282° |
| 2026-04-30 18:34 | 24.17643 | 89.90302 | 39843 ft | 458 kts | 282° |
| 2026-04-30 18:35 | 24.19056 | 89.83530 | 39854 ft | 459 kts | 282° |
| 2026-04-30 18:35 | 24.20475 | 89.76703 | 39842 ft | 459 kts | 282° |
| 2026-04-30 18:36 | 24.22597 | 89.66461 | 39854 ft | 459 kts | 282° |
| 2026-04-30 18:37 | 24.24707 | 89.56240 | 39841 ft | 459 kts | 282° |
| 2026-04-30 18:37 | 24.26112 | 89.49416 | 39853 ft | 459 kts | 282° |
| 2026-04-30 18:38 | 24.27512 | 89.42596 | 39846 ft | 460 kts | 282° |
| 2026-04-30 18:38 | 24.28918 | 89.35734 | 39845 ft | 460 kts | 282° |
| 2026-04-30 18:39 | 24.30317 | 89.28891 | 39855 ft | 459 kts | 281° |
| 2026-04-30 18:39 | 24.31707 | 89.22052 | 39842 ft | 460 kts | 282° |
| 2026-04-30 18:40 | 24.33097 | 89.15212 | 39852 ft | 459 kts | 282° |
| 2026-04-30 18:40 | 24.34480 | 89.08391 | 39851 ft | 461 kts | 282° |
| 2026-04-30 18:41 | 24.35868 | 89.01534 | 39842 ft | 460 kts | 282° |
| 2026-04-30 18:41 | 24.37261 | 88.94660 | 39856 ft | 460 kts | 282° |
| 2026-04-30 18:42 | 24.38650 | 88.87789 | 39845 ft | 461 kts | 282° |
| 2026-04-30 18:42 | 24.40721 | 88.77455 | 39862 ft | 461 kts | 282° |
| 2026-04-30 18:45 | 24.51185 | 88.44221 | 39854 ft | 465 kts | 293° |
| 2026-04-30 18:45 | 24.52536 | 88.41000 | 39862 ft | 465 kts | 293° |
| 2026-04-30 18:46 | 24.55248 | 88.34542 | 39844 ft | 464 kts | 293° |
| 2026-04-30 18:46 | 24.57932 | 88.28140 | 39848 ft | 463 kts | 293° |
| 2026-04-30 18:47 | 24.60626 | 88.21703 | 39848 ft | 464 kts | 293° |
| 2026-04-30 18:47 | 24.63329 | 88.15229 | 39834 ft | 464 kts | 293° |
| 2026-04-30 18:48 | 24.66014 | 88.08788 | 39851 ft | 464 kts | 293° |
| 2026-04-30 18:48 | 24.68681 | 88.02366 | 39835 ft | 463 kts | 293° |
| 2026-04-30 18:49 | 24.71358 | 87.95876 | 39849 ft | 466 kts | 293° |
| 2026-04-30 18:49 | 24.74027 | 87.89380 | 39845 ft | 466 kts | 293° |
| 2026-04-30 18:50 | 24.76690 | 87.82882 | 39839 ft | 465 kts | 293° |
| 2026-04-30 18:50 | 24.79382 | 87.76453 | 39847 ft | 465 kts | 294° |
| 2026-04-30 18:51 | 24.82133 | 87.69982 | 39840 ft | 465 kts | 294° |
| 2026-04-30 18:51 | 24.84882 | 87.63512 | 39853 ft | 465 kts | 294° |
| 2026-04-30 18:52 | 24.87639 | 87.57025 | 39841 ft | 465 kts | 294° |
| 2026-04-30 18:52 | 24.90377 | 87.50566 | 39857 ft | 465 kts | 294° |
| 2026-04-30 18:53 | 24.93109 | 87.44117 | 39840 ft | 463 kts | 294° |
| 2026-04-30 18:53 | 24.95841 | 87.37670 | 39829 ft | 464 kts | 294° |
| 2026-04-30 18:54 | 24.98600 | 87.31116 | 39853 ft | 465 kts | 294° |
| 2026-04-30 18:54 | 25.00888 | 87.25700 | 39839 ft | 463 kts | 294° |
| 2026-04-30 18:55 | 25.03600 | 87.19251 | 39831 ft | 464 kts | 294° |
| 2026-04-30 18:55 | 25.07677 | 87.09560 | 39832 ft | 464 kts | 294° |
| 2026-04-30 18:56 | 25.11737 | 86.99874 | 39825 ft | 464 kts | 294° |
| 2026-04-30 18:57 | 25.15792 | 86.90142 | 39840 ft | 463 kts | 295° |
| 2026-04-30 18:57 | 25.18484 | 86.83677 | 39838 ft | 464 kts | 295° |
| 2026-04-30 18:58 | 25.22541 | 86.73997 | 39823 ft | 462 kts | 295° |
| 2026-04-30 18:59 | 25.26567 | 86.64312 | 39830 ft | 463 kts | 295° |
| 2026-04-30 19:00 | 25.31898 | 86.51437 | 39839 ft | 460 kts | 295° |
| 2026-04-30 19:01 | 25.35971 | 86.38005 | 39825 ft | 463 kts | 284° |
| 2026-04-30 19:02 | 25.38006 | 86.27594 | 39821 ft | 463 kts | 283° |
| 2026-04-30 19:03 | 25.40558 | 86.13625 | 39820 ft | 462 kts | 283° |
| 2026-04-30 19:04 | 25.43082 | 85.99673 | 39838 ft | 461 kts | 283° |
| 2026-04-30 19:05 | 25.45587 | 85.85777 | 39817 ft | 461 kts | 283° |
| 2026-04-30 19:06 | 25.48072 | 85.71872 | 39811 ft | 459 kts | 283° |
| 2026-04-30 19:06 | 25.49920 | 85.61428 | 39825 ft | 461 kts | 283° |
| 2026-04-30 19:07 | 25.51768 | 85.50984 | 39813 ft | 459 kts | 283° |
| 2026-04-30 19:08 | 25.54220 | 85.37118 | 39811 ft | 460 kts | 283° |
| 2026-04-30 19:09 | 25.56046 | 85.26674 | 39830 ft | 460 kts | 283° |
| 2026-04-30 19:09 | 25.57256 | 85.19712 | 39810 ft | 459 kts | 283° |
| 2026-04-30 19:10 | 25.60094 | 85.05986 | 39804 ft | 457 kts | 289° |
| 2026-04-30 19:11 | 25.62998 | 84.95971 | 39833 ft | 454 kts | 290° |
| 2026-04-30 19:12 | 25.64965 | 84.89301 | 39807 ft | 455 kts | 290° |
| 2026-04-30 19:12 | 25.66913 | 84.82643 | 39788 ft | 453 kts | 290° |
| 2026-04-30 19:13 | 25.70794 | 84.69374 | 39792 ft | 452 kts | 290° |
| 2026-04-30 19:14 | 25.72729 | 84.62720 | 39798 ft | 452 kts | 290° |
| 2026-04-30 19:14 | 25.74663 | 84.56071 | 39798 ft | 452 kts | 291° |
| 2026-04-30 19:15 | 25.76581 | 84.49455 | 39801 ft | 452 kts | 290° |
| 2026-04-30 19:15 | 25.79461 | 84.39501 | 39814 ft | 450 kts | 291° |
| 2026-04-30 19:16 | 25.81376 | 84.32884 | 39808 ft | 450 kts | 291° |
| 2026-04-30 19:17 | 25.84257 | 84.22929 | 39810 ft | 449 kts | 291° |
| 2026-04-30 19:17 | 25.87096 | 84.13005 | 39820 ft | 450 kts | 290° |
| 2026-04-30 19:18 | 25.89942 | 84.03072 | 39805 ft | 449 kts | 290° |
| 2026-04-30 19:19 | 25.91816 | 83.96491 | 39824 ft | 450 kts | 290° |
| 2026-04-30 19:19 | 25.94657 | 83.86563 | 39816 ft | 449 kts | 291° |
| 2026-04-30 19:20 | 25.96544 | 83.79937 | 39827 ft | 449 kts | 290° |
| 2026-04-30 19:21 | 25.99359 | 83.70017 | 39810 ft | 448 kts | 290° |
| 2026-04-30 19:22 | 26.03113 | 83.56771 | 39806 ft | 450 kts | 290° |
| 2026-04-30 19:23 | 26.08703 | 83.36897 | 39813 ft | 448 kts | 290° |
| 2026-04-30 19:24 | 26.11501 | 83.26965 | 39791 ft | 449 kts | 290° |
| 2026-04-30 19:25 | 26.16149 | 83.10376 | 39796 ft | 448 kts | 290° |
| 2026-04-30 19:26 | 26.19842 | 82.97148 | 39804 ft | 447 kts | 290° |
| 2026-04-30 19:27 | 26.22602 | 82.87215 | 39804 ft | 448 kts | 290° |
| 2026-04-30 19:28 | 26.25352 | 82.77286 | 39795 ft | 447 kts | 290° |
| 2026-04-30 19:29 | 26.29015 | 82.64027 | 39802 ft | 448 kts | 290° |
| 2026-04-30 19:30 | 26.32659 | 82.50773 | 39799 ft | 447 kts | 290° |
| 2026-04-30 19:31 | 26.36305 | 82.37467 | 39787 ft | 448 kts | 290° |
| 2026-04-30 19:31 | 26.39027 | 82.27488 | 39793 ft | 448 kts | 290° |
| 2026-04-30 19:32 | 26.40532 | 82.21961 | 39783 ft | 448 kts | 290° |
| 2026-04-30 19:32 | 26.42635 | 82.14221 | 39794 ft | 447 kts | 290° |
| 2026-04-30 19:33 | 26.44147 | 82.08654 | 39785 ft | 447 kts | 290° |
| 2026-04-30 19:33 | 26.45947 | 82.02006 | 39784 ft | 447 kts | 290° |
| 2026-04-30 19:34 | 26.47745 | 81.95351 | 39792 ft | 447 kts | 290° |
| 2026-04-30 19:35 | 26.50421 | 81.85420 | 39779 ft | 447 kts | 290° |
| 2026-04-30 19:35 | 26.52214 | 81.78751 | 39790 ft | 447 kts | 290° |
| 2026-04-30 19:36 | 26.53985 | 81.72148 | 39778 ft | 446 kts | 290° |
| 2026-04-30 19:36 | 26.56658 | 81.62165 | 39789 ft | 446 kts | 290° |
| 2026-04-30 19:37 | 26.58433 | 81.55510 | 39779 ft | 446 kts | 290° |
| 2026-04-30 19:37 | 26.60204 | 81.48852 | 39783 ft | 446 kts | 290° |
| 2026-04-30 19:38 | 26.61972 | 81.42197 | 39788 ft | 447 kts | 290° |
| 2026-04-30 19:38 | 26.63737 | 81.35544 | 39777 ft | 445 kts | 290° |
| 2026-04-30 19:39 | 26.65487 | 81.28939 | 39789 ft | 445 kts | 290° |
| 2026-04-30 19:39 | 26.67244 | 81.22286 | 39785 ft | 446 kts | 290° |
| 2026-04-30 19:40 | 26.68987 | 81.15673 | 39781 ft | 445 kts | 290° |
| 2026-04-30 19:40 | 26.70738 | 81.09017 | 39795 ft | 445 kts | 290° |
| 2026-04-30 19:41 | 26.72487 | 81.02363 | 39781 ft | 445 kts | 290° |
| 2026-04-30 19:41 | 26.74232 | 80.95708 | 39790 ft | 445 kts | 290° |
| 2026-04-30 19:42 | 26.75420 | 80.92535 | 39769 ft | 440 kts | 301° |
| 2026-04-30 19:42 | 26.77067 | 80.89649 | 39809 ft | 439 kts | 306° |
| 2026-04-30 19:42 | 26.80671 | 80.84111 | 39787 ft | 439 kts | 308° |
| 2026-04-30 19:43 | 26.84446 | 80.78788 | 39783 ft | 438 kts | 310° |
| 2026-04-30 19:44 | 26.90328 | 80.70915 | 39789 ft | 438 kts | 311° |
| 2026-04-30 19:44 | 26.94287 | 80.65690 | 39780 ft | 438 kts | 311° |
| 2026-04-30 19:45 | 26.98213 | 80.60514 | 39791 ft | 438 kts | 311° |
| 2026-04-30 19:45 | 27.02164 | 80.55296 | 39781 ft | 438 kts | 311° |
| 2026-04-30 19:46 | 27.06117 | 80.50055 | 39779 ft | 438 kts | 311° |
| 2026-04-30 19:46 | 27.10060 | 80.44832 | 39787 ft | 438 kts | 311° |
| 2026-04-30 19:47 | 27.14003 | 80.39609 | 39777 ft | 438 kts | 311° |
| 2026-04-30 19:47 | 27.17924 | 80.34414 | 39792 ft | 438 kts | 311° |
| 2026-04-30 19:48 | 27.21877 | 80.29177 | 39784 ft | 438 kts | 311° |
| 2026-04-30 19:48 | 27.25821 | 80.23942 | 39782 ft | 438 kts | 311° |
| 2026-04-30 19:49 | 27.29752 | 80.18714 | 39791 ft | 438 kts | 311° |
| 2026-04-30 19:49 | 27.35653 | 80.10843 | 39769 ft | 438 kts | 311° |
| 2026-04-30 19:50 | 27.39595 | 80.05583 | 39775 ft | 438 kts | 311° |
| 2026-04-30 19:50 | 27.43503 | 80.00362 | 39773 ft | 438 kts | 311° |
| 2026-04-30 19:51 | 27.47445 | 79.95091 | 39762 ft | 439 kts | 311° |
| 2026-04-30 19:51 | 27.51384 | 79.89817 | 39771 ft | 439 kts | 311° |
| 2026-04-30 19:52 | 27.55314 | 79.84549 | 39761 ft | 438 kts | 311° |
| 2026-04-30 19:52 | 27.59214 | 79.79315 | 39756 ft | 438 kts | 311° |
| 2026-04-30 19:53 | 27.63139 | 79.74040 | 39765 ft | 438 kts | 311° |
| 2026-04-30 19:53 | 27.67025 | 79.68751 | 39740 ft | 439 kts | 307° |
| 2026-04-30 19:54 | 27.70000 | 79.62669 | 39762 ft | 443 kts | 298° |
| 2026-04-30 19:54 | 27.72595 | 79.56360 | 39743 ft | 443 kts | 296° |
| 2026-04-30 19:55 | 27.75029 | 79.49995 | 39765 ft | 444 kts | 296° |
| 2026-04-30 19:55 | 27.77428 | 79.43563 | 39743 ft | 444 kts | 296° |
| 2026-04-30 19:56 | 27.79804 | 79.37120 | 39744 ft | 444 kts | 295° |
| 2026-04-30 19:56 | 27.82172 | 79.30661 | 39750 ft | 444 kts | 295° |
| 2026-04-30 19:57 | 27.84519 | 79.24234 | 39738 ft | 445 kts | 295° |
| 2026-04-30 19:57 | 27.86879 | 79.17757 | 39749 ft | 444 kts | 295° |
| 2026-04-30 19:58 | 27.89236 | 79.11279 | 39745 ft | 445 kts | 295° |
| 2026-04-30 19:58 | 27.91586 | 79.04814 | 39738 ft | 444 kts | 295° |
| 2026-04-30 19:59 | 27.93930 | 78.98340 | 39752 ft | 445 kts | 295° |
| 2026-04-30 20:00 | 27.97432 | 78.88658 | 39736 ft | 444 kts | 295° |
| 2026-04-30 20:00 | 27.99772 | 78.82178 | 39751 ft | 444 kts | 295° |
| 2026-04-30 20:01 | 28.03272 | 78.72463 | 39740 ft | 443 kts | 295° |
| 2026-04-30 20:01 | 28.05601 | 78.65987 | 39280 ft | 445 kts | 295° |
| 2026-04-30 20:02 | 28.07891 | 78.59596 | 38275 ft | 437 kts | 295° |
| 2026-04-30 20:02 | 28.09030 | 78.56415 | 37748 ft | 432 kts | 295° |
| 2026-04-30 20:03 | 28.11267 | 78.50162 | 36700 ft | 424 kts | 295° |
| 2026-04-30 20:03 | 28.12369 | 78.47081 | 36182 ft | 421 kts | 295° |
| 2026-04-30 20:03 | 28.13468 | 78.44004 | 35666 ft | 423 kts | 295° |
| 2026-04-30 20:03 | 28.14580 | 78.40895 | 35145 ft | 427 kts | 295° |
| 2026-04-30 20:04 | 28.15700 | 78.37759 | 34614 ft | 430 kts | 295° |
| 2026-04-30 20:04 | 28.16821 | 78.34619 | 34082 ft | 429 kts | 296° |
| 2026-04-30 20:04 | 28.17936 | 78.31486 | 33547 ft | 428 kts | 295° |
| 2026-04-30 20:05 | 28.20183 | 78.25178 | 32481 ft | 439 kts | 295° |
| 2026-04-30 20:05 | 28.21325 | 78.21960 | 31933 ft | 441 kts | 295° |
| 2026-04-30 20:05 | 28.23596 | 78.15550 | 30846 ft | 434 kts | 295° |
| 2026-04-30 20:06 | 28.24727 | 78.12353 | 30306 ft | 434 kts | 295° |
| 2026-04-30 20:06 | 28.25840 | 78.09204 | 29775 ft | 435 kts | 294° |
| 2026-04-30 20:06 | 28.26966 | 78.06017 | 29235 ft | 433 kts | 294° |
| 2026-04-30 20:06 | 28.28083 | 78.02855 | 28697 ft | 430 kts | 294° |
| 2026-04-30 20:07 | 28.29184 | 77.99732 | 28170 ft | 427 kts | 294° |
| 2026-04-30 20:07 | 28.30283 | 77.96611 | 27644 ft | 423 kts | 294° |
| 2026-04-30 20:07 | 28.32437 | 77.90489 | 26605 ft | 409 kts | 293° |
| 2026-04-30 20:08 | 28.33485 | 77.87511 | 26102 ft | 403 kts | 293° |
| 2026-04-30 20:08 | 28.34516 | 77.84579 | 25609 ft | 396 kts | 292° |
| 2026-04-30 20:08 | 28.35528 | 77.81700 | 25125 ft | 391 kts | 292° |
| 2026-04-30 20:08 | 28.36528 | 77.78851 | 24647 ft | 386 kts | 292° |
| 2026-04-30 20:09 | 28.37517 | 77.76030 | 24173 ft | 381 kts | 292° |
| 2026-04-30 20:09 | 28.38209 | 77.74169 | 23842 ft | 379 kts | 295° |
| 2026-04-30 20:09 | 28.41340 | 77.69474 | 22899 ft | 373 kts | 311° |
| 2026-04-30 20:10 | 28.44930 | 77.65287 | 21976 ft | 367 kts | 314° |
| 2026-04-30 20:10 | 28.46762 | 77.63278 | 21520 ft | 363 kts | 315° |
| 2026-04-30 20:10 | 28.48590 | 77.61312 | 21069 ft | 360 kts | 315° |
| 2026-04-30 20:11 | 28.52229 | 77.57459 | 20180 ft | 354 kts | 315° |
| 2026-04-30 20:11 | 28.54029 | 77.55564 | 19733 ft | 351 kts | 315° |
| 2026-04-30 20:11 | 28.55798 | 77.53701 | 19299 ft | 348 kts | 315° |
| 2026-04-30 20:12 | 28.59326 | 77.49990 | 18383 ft | 343 kts | 315° |
| 2026-04-30 20:12 | 28.61075 | 77.48150 | 17968 ft | 339 kts | 315° |
| 2026-04-30 20:12 | 28.62498 | 77.46651 | 17696 ft | 334 kts | 315° |
| 2026-04-30 20:13 | 28.64193 | 77.44868 | 17337 ft | 329 kts | 315° |
| 2026-04-30 20:13 | 28.65869 | 77.43107 | 16961 ft | 325 kts | 315° |
| 2026-04-30 20:13 | 28.67525 | 77.41365 | 16577 ft | 322 kts | 315° |
| 2026-04-30 20:13 | 28.69160 | 77.39643 | 16190 ft | 318 kts | 315° |
| 2026-04-30 20:14 | 28.70757 | 77.37959 | 15807 ft | 315 kts | 315° |
| 2026-04-30 20:14 | 28.72358 | 77.36271 | 15421 ft | 312 kts | 315° |
| 2026-04-30 20:14 | 28.73948 | 77.34593 | 15035 ft | 309 kts | 315° |
| 2026-04-30 20:14 | 28.75518 | 77.32936 | 14649 ft | 306 kts | 315° |
| 2026-04-30 20:15 | 28.77080 | 77.31288 | 14266 ft | 303 kts | 315° |
| 2026-04-30 20:15 | 28.78623 | 77.29662 | 13878 ft | 301 kts | 315° |
| 2026-04-30 20:15 | 28.80153 | 77.28048 | 13501 ft | 298 kts | 315° |
| 2026-04-30 20:15 | 28.81657 | 77.26435 | 13091 ft | 293 kts | 312° |
| 2026-04-30 20:16 | 28.82668 | 77.24500 | 12672 ft | 279 kts | 286° |
| 2026-04-30 20:16 | 28.82785 | 77.22354 | 12526 ft | 265 kts | 269° |
| 2026-04-30 20:16 | 28.82689 | 77.20290 | 12230 ft | 263 kts | 269° |
| 2026-04-30 20:16 | 28.82636 | 77.18219 | 11866 ft | 259 kts | 270° |
| 2026-04-30 20:17 | 28.82625 | 77.16494 | 11624 ft | 245 kts | 271° |
| 2026-04-30 20:17 | 28.82632 | 77.14624 | 11302 ft | 230 kts | 272° |
| 2026-04-30 20:17 | 28.82655 | 77.12824 | 10968 ft | 228 kts | 272° |
| 2026-04-30 20:17 | 28.82688 | 77.10981 | 10638 ft | 235 kts | 272° |
| 2026-04-30 20:18 | 28.82729 | 77.09109 | 10320 ft | 239 kts | 272° |
| 2026-04-30 20:18 | 28.82415 | 77.07249 | 9906 ft | 243 kts | 246° |
| 2026-04-30 20:18 | 28.81365 | 77.05717 | 9672 ft | 247 kts | 229° |
| 2026-04-30 20:18 | 28.80210 | 77.04278 | 9288 ft | 246 kts | 229° |
| 2026-04-30 20:19 | 28.79090 | 77.02875 | 8800 ft | 236 kts | 228° |
| 2026-04-30 20:19 | 28.78010 | 77.01510 | 8287 ft | 228 kts | 228° |
| 2026-04-30 20:19 | 28.76963 | 77.00182 | 7783 ft | 225 kts | 227° |
| 2026-04-30 20:19 | 28.75917 | 76.98854 | 7281 ft | 223 kts | 228° |
| 2026-04-30 20:20 | 28.74890 | 76.97542 | 6774 ft | 221 kts | 228° |
| 2026-04-30 20:20 | 28.73864 | 76.96231 | 6216 ft | 220 kts | 228° |
| 2026-04-30 20:20 | 28.72848 | 76.94933 | 5675 ft | 218 kts | 228° |
| 2026-04-30 20:20 | 28.72091 | 76.93965 | 5307 ft | 214 kts | 228° |
| 2026-04-30 20:21 | 28.71047 | 76.92632 | 4775 ft | 210 kts | 228° |
| 2026-04-30 20:21 | 28.70097 | 76.91417 | 4398 ft | 203 kts | 228° |
| 2026-04-30 20:21 | 28.69068 | 76.90326 | 4329 ft | 203 kts | 214° |
| 2026-04-30 20:21 | 28.67720 | 76.89982 | 4010 ft | 199 kts | 176° |
| 2026-04-30 20:22 | 28.66456 | 76.90516 | 3807 ft | 193 kts | 152° |
| 2026-04-30 20:22 | 28.65260 | 76.91257 | 3475 ft | 196 kts | 149° |
| 2026-04-30 20:22 | 28.64106 | 76.92026 | 3108 ft | 186 kts | 148° |
| 2026-04-30 20:22 | 28.63037 | 76.92760 | 2815 ft | 176 kts | 147° |
| 2026-04-30 20:23 | 28.62000 | 76.93484 | 2635 ft | 172 kts | 147° |
| 2026-04-30 20:23 | 28.60984 | 76.94204 | 2598 ft | 171 kts | 147° |
| 2026-04-30 20:23 | 28.59988 | 76.94910 | 2592 ft | 170 kts | 147° |
| 2026-04-30 20:23 | 28.58986 | 76.95622 | 2582 ft | 169 kts | 147° |
| 2026-04-30 20:24 | 28.57995 | 76.96328 | 2574 ft | 169 kts | 147° |
| 2026-04-30 20:24 | 28.57133 | 76.97186 | 2517 ft | 164 kts | 128° |
| 2026-04-30 20:24 | 28.56742 | 76.98348 | 2541 ft | 153 kts | 103° |
| 2026-04-30 20:24 | 28.56523 | 76.99527 | 2555 ft | 152 kts | 101° |
| 2026-04-30 20:25 | 28.55946 | 77.01806 | 2086 ft | 149 kts | 108° |
| 2026-04-30 20:25 | 28.55595 | 77.02899 | 1779 ft | 145 kts | 111° |
| 2026-04-30 20:26 | 28.55040 | 77.05094 | 1273 ft | 143 kts | 106° |
| 2026-04-30 20:26 | 28.54562 | 77.07287 | 823 ft | 141 kts | 106° |
| 2026-04-30 20:26 | 28.54351 | 77.08243 | 791 ft | 89 kts | 104° |
| 2026-04-30 20:27 | 28.54213 | 77.09029 | 791 ft | 37 kts | 84° |
| 2026-04-30 20:27 | 28.54280 | 77.09369 | 790 ft | 22 kts | 95° |
| 2026-04-30 20:28 | 28.54229 | 77.09668 | 790 ft | 16 kts | 77° |
| 2026-04-30 20:28 | 28.54506 | 77.09774 | 790 ft | 25 kts | 14° |
| 2026-04-30 20:29 | 28.54685 | 77.09668 | 790 ft | 21 kts | 284° |
| 2026-04-30 20:30 | 28.54856 | 77.08921 | 790 ft | 29 kts | 284° |
| 2026-04-30 20:30 | 28.54998 | 77.08295 | 790 ft | 27 kts | 287° |
| 2026-04-30 20:31 | 28.55145 | 77.07738 | 790 ft | 17 kts | 317° |
| 2026-04-30 20:32 | 28.55540 | 77.07852 | 790 ft | 19 kts | 14° |
| 2026-04-30 20:32 | 28.55655 | 77.08025 | 790 ft | 11 kts | 61° |
| 2026-04-30 20:33 | 28.55650 | 77.08066 | 790 ft | 5 kts | 126° |
| 2026-04-30 20:33 | 28.55606 | 77.08101 | 790 ft | 2 kts | 148° |
| 2026-04-30 20:33 | 28.55601 | 77.08105 | 790 ft | 0 kts | 148° |